sensor_id;sensor_type;location;lat;lon;timestamp;P1;durP1;ratioP1;P2;durP2;ratioP2
10509;SDS011;5303;53.266;10.410;2023-08-21T00:01:55;6.67;;;4.30;;
10509;SDS011;5303;53.266;10.410;2023-08-21T00:04:20;6.27;;;4.00;;
10509;SDS011;5303;53.266;10.410;2023-08-21T00:06:45;5.40;;;3.47;;
10509;SDS011;5303;53.266;10.410;2023-08-21T00:09:11;5.57;;;3.60;;
10509;SDS011;5303;53.266;10.410;2023-08-21T00:11:36;7.93;;;3.93;;
10509;SDS011;5303;53.266;10.410;2023-08-21T00:14:01;5.40;;;4.10;;
10509;SDS011;5303;53.266;10.410;2023-08-21T00:16:26;6.13;;;4.17;;
10509;SDS011;5303;53.266;10.410;2023-08-21T00:18:53;10.73;;;4.27;;
10509;SDS011;5303;53.266;10.410;2023-08-21T00:21:19;7.63;;;3.63;;
10509;SDS011;5303;53.266;10.410;2023-08-21T00:23:44;10.03;;;4.57;;
10509;SDS011;5303;53.266;10.410;2023-08-21T00:26:09;5.53;;;3.73;;
10509;SDS011;5303;53.266;10.410;2023-08-21T00:28:35;8.20;;;4.13;;
10509;SDS011;5303;53.266;10.410;2023-08-21T00:31:03;6.30;;;3.60;;
10509;SDS011;5303;53.266;10.410;2023-08-21T00:33:32;6.27;;;3.73;;
10509;SDS011;5303;53.266;10.410;2023-08-21T00:35:58;6.83;;;3.47;;
10509;SDS011;5303;53.266;10.410;2023-08-21T00:38:24;6.50;;;3.73;;
10509;SDS011;5303;53.266;10.410;2023-08-21T00:40:50;6.80;;;3.70;;
10509;SDS011;5303;53.266;10.410;2023-08-21T00:43:15;7.80;;;4.13;;
10509;SDS011;5303;53.266;10.410;2023-08-21T00:45:41;5.40;;;3.97;;
10509;SDS011;5303;53.266;10.410;2023-08-21T00:48:09;10.00;;;4.50;;
10509;SDS011;5303;53.266;10.410;2023-08-21T00:50:36;4.93;;;3.80;;
10509;SDS011;5303;53.266;10.410;2023-08-21T00:53:02;4.50;;;4.03;;
10509;SDS011;5303;53.266;10.410;2023-08-21T00:55:28;6.47;;;3.80;;
10509;SDS011;5303;53.266;10.410;2023-08-21T00:57:54;6.60;;;3.83;;
10509;SDS011;5303;53.266;10.410;2023-08-21T01:00:19;5.47;;;3.47;;
10509;SDS011;5303;53.266;10.410;2023-08-21T01:02:47;5.50;;;3.60;;
10509;SDS011;5303;53.266;10.410;2023-08-21T01:05:12;5.10;;;4.03;;
10509;SDS011;5303;53.266;10.410;2023-08-21T01:07:38;6.73;;;3.83;;
10509;SDS011;5303;53.266;10.410;2023-08-21T01:10:17;6.10;;;4.00;;
10509;SDS011;5303;53.266;10.410;2023-08-21T01:12:56;5.83;;;4.17;;
10509;SDS011;5303;53.266;10.410;2023-08-21T01:15:31;5.60;;;3.70;;
10509;SDS011;5303;53.266;10.410;2023-08-21T01:17:57;5.00;;;3.73;;
10509;SDS011;5303;53.266;10.410;2023-08-21T01:20:23;6.13;;;3.80;;
10509;SDS011;5303;53.266;10.410;2023-08-21T01:22:49;5.73;;;3.87;;
10509;SDS011;5303;53.266;10.410;2023-08-21T01:25:15;6.73;;;4.43;;
10509;SDS011;5303;53.266;10.410;2023-08-21T01:27:42;6.10;;;4.00;;
10509;SDS011;5303;53.266;10.410;2023-08-21T01:30:15;6.50;;;4.37;;
10509;SDS011;5303;53.266;10.410;2023-08-21T01:35:33;7.07;;;4.43;;
10509;SDS011;5303;53.266;10.410;2023-08-21T01:38:00;5.93;;;4.20;;
10509;SDS011;5303;53.266;10.410;2023-08-21T01:40:27;5.53;;;4.20;;
10509;SDS011;5303;53.266;10.410;2023-08-21T01:42:52;6.23;;;4.23;;
10509;SDS011;5303;53.266;10.410;2023-08-21T01:45:19;8.17;;;4.57;;
10509;SDS011;5303;53.266;10.410;2023-08-21T01:47:44;6.93;;;4.43;;
10509;SDS011;5303;53.266;10.410;2023-08-21T01:50:09;7.20;;;4.40;;
10509;SDS011;5303;53.266;10.410;2023-08-21T01:52:35;8.47;;;4.50;;
10509;SDS011;5303;53.266;10.410;2023-08-21T01:55:00;4.83;;;4.17;;
10509;SDS011;5303;53.266;10.410;2023-08-21T01:57:25;7.03;;;4.10;;
10509;SDS011;5303;53.266;10.410;2023-08-21T01:59:50;7.17;;;4.10;;
10509;SDS011;5303;53.266;10.410;2023-08-21T02:02:16;7.03;;;4.20;;
10509;SDS011;5303;53.266;10.410;2023-08-21T02:04:41;7.47;;;4.30;;
10509;SDS011;5303;53.266;10.410;2023-08-21T02:07:06;6.37;;;4.20;;
10509;SDS011;5303;53.266;10.410;2023-08-21T02:09:32;6.03;;;4.50;;
10509;SDS011;5303;53.266;10.410;2023-08-21T02:11:58;4.77;;;4.20;;
10509;SDS011;5303;53.266;10.410;2023-08-21T02:14:23;6.90;;;4.53;;
10509;SDS011;5303;53.266;10.410;2023-08-21T02:16:48;7.70;;;4.50;;
10509;SDS011;5303;53.266;10.410;2023-08-21T02:19:14;9.10;;;4.63;;
10509;SDS011;5303;53.266;10.410;2023-08-21T02:21:39;6.93;;;4.20;;
10509;SDS011;5303;53.266;10.410;2023-08-21T02:24:04;4.93;;;3.93;;
10509;SDS011;5303;53.266;10.410;2023-08-21T02:26:29;5.33;;;3.80;;
10509;SDS011;5303;53.266;10.410;2023-08-21T02:28:55;6.17;;;4.30;;
10509;SDS011;5303;53.266;10.410;2023-08-21T02:31:20;8.83;;;4.60;;
10509;SDS011;5303;53.266;10.410;2023-08-21T02:33:45;7.23;;;4.80;;
10509;SDS011;5303;53.266;10.410;2023-08-21T02:36:10;6.87;;;4.40;;
10509;SDS011;5303;53.266;10.410;2023-08-21T02:38:36;8.50;;;4.37;;
10509;SDS011;5303;53.266;10.410;2023-08-21T02:41:01;6.73;;;4.17;;
10509;SDS011;5303;53.266;10.410;2023-08-21T02:43:26;6.33;;;4.30;;
10509;SDS011;5303;53.266;10.410;2023-08-21T02:45:52;6.50;;;4.37;;
10509;SDS011;5303;53.266;10.410;2023-08-21T02:48:17;6.03;;;4.03;;
10509;SDS011;5303;53.266;10.410;2023-08-21T02:50:42;4.47;;;4.00;;
10509;SDS011;5303;53.266;10.410;2023-08-21T02:53:08;5.50;;;4.23;;
10509;SDS011;5303;53.266;10.410;2023-08-21T02:55:33;6.10;;;3.90;;
10509;SDS011;5303;53.266;10.410;2023-08-21T02:57:59;8.70;;;4.07;;
10509;SDS011;5303;53.266;10.410;2023-08-21T03:00:24;6.57;;;3.93;;
10509;SDS011;5303;53.266;10.410;2023-08-21T03:02:49;7.60;;;4.33;;
10509;SDS011;5303;53.266;10.410;2023-08-21T03:05:15;6.60;;;4.40;;
10509;SDS011;5303;53.266;10.410;2023-08-21T03:07:40;7.87;;;4.67;;
10509;SDS011;5303;53.266;10.410;2023-08-21T03:10:06;7.17;;;4.43;;
10509;SDS011;5303;53.266;10.410;2023-08-21T03:12:32;7.20;;;4.30;;
10509;SDS011;5303;53.266;10.410;2023-08-21T03:14:57;9.83;;;4.67;;
10509;SDS011;5303;53.266;10.410;2023-08-21T03:17:23;7.13;;;4.37;;
10509;SDS011;5303;53.266;10.410;2023-08-21T03:19:49;7.03;;;4.43;;
10509;SDS011;5303;53.266;10.410;2023-08-21T03:22:14;7.80;;;4.93;;
10509;SDS011;5303;53.266;10.410;2023-08-21T03:24:39;6.20;;;4.00;;
10509;SDS011;5303;53.266;10.410;2023-08-21T03:27:05;6.00;;;4.23;;
10509;SDS011;5303;53.266;10.410;2023-08-21T03:29:30;6.00;;;4.07;;
10509;SDS011;5303;53.266;10.410;2023-08-21T03:31:57;6.40;;;4.40;;
10509;SDS011;5303;53.266;10.410;2023-08-21T03:34:23;4.93;;;3.90;;
10509;SDS011;5303;53.266;10.410;2023-08-21T03:36:48;7.23;;;4.10;;
10509;SDS011;5303;53.266;10.410;2023-08-21T03:39:13;6.13;;;3.90;;
10509;SDS011;5303;53.266;10.410;2023-08-21T03:41:39;6.40;;;4.20;;
10509;SDS011;5303;53.266;10.410;2023-08-21T03:44:04;7.67;;;4.60;;
10509;SDS011;5303;53.266;10.410;2023-08-21T03:46:29;7.77;;;4.63;;
10509;SDS011;5303;53.266;10.410;2023-08-21T03:48:55;8.93;;;5.00;;
10509;SDS011;5303;53.266;10.410;2023-08-21T03:51:20;6.47;;;4.90;;
10509;SDS011;5303;53.266;10.410;2023-08-21T03:53:45;6.40;;;4.67;;
10509;SDS011;5303;53.266;10.410;2023-08-21T03:56:10;6.50;;;4.27;;
10509;SDS011;5303;53.266;10.410;2023-08-21T03:58:36;5.90;;;4.67;;
10509;SDS011;5303;53.266;10.410;2023-08-21T04:01:01;8.40;;;4.93;;
10509;SDS011;5303;53.266;10.410;2023-08-21T04:03:27;9.00;;;5.33;;
10509;SDS011;5303;53.266;10.410;2023-08-21T04:05:55;7.43;;;5.33;;
10509;SDS011;5303;53.266;10.410;2023-08-21T04:08:21;9.07;;;5.30;;
10509;SDS011;5303;53.266;10.410;2023-08-21T04:10:47;9.40;;;4.87;;
10509;SDS011;5303;53.266;10.410;2023-08-21T04:13:13;8.23;;;5.17;;
10509;SDS011;5303;53.266;10.410;2023-08-21T04:15:38;8.67;;;5.27;;
10509;SDS011;5303;53.266;10.410;2023-08-21T04:18:04;8.00;;;5.63;;
10509;SDS011;5303;53.266;10.410;2023-08-21T04:20:30;7.70;;;5.10;;
10509;SDS011;5303;53.266;10.410;2023-08-21T04:22:55;7.17;;;5.27;;
10509;SDS011;5303;53.266;10.410;2023-08-21T04:25:21;9.30;;;5.83;;
10509;SDS011;5303;53.266;10.410;2023-08-21T04:27:47;7.93;;;5.20;;
10509;SDS011;5303;53.266;10.410;2023-08-21T04:30:12;6.93;;;5.40;;
10509;SDS011;5303;53.266;10.410;2023-08-21T04:32:38;9.47;;;5.53;;
10509;SDS011;5303;53.266;10.410;2023-08-21T04:35:03;5.67;;;4.67;;
10509;SDS011;5303;53.266;10.410;2023-08-21T04:37:30;11.00;;;5.63;;
10509;SDS011;5303;53.266;10.410;2023-08-21T04:39:56;9.33;;;5.70;;
10509;SDS011;5303;53.266;10.410;2023-08-21T04:42:21;10.60;;;6.40;;
10509;SDS011;5303;53.266;10.410;2023-08-21T04:44:47;7.17;;;5.83;;
10509;SDS011;5303;53.266;10.410;2023-08-21T04:47:26;6.40;;;5.13;;
10509;SDS011;5303;53.266;10.410;2023-08-21T04:49:51;8.37;;;5.50;;
10509;SDS011;5303;53.266;10.410;2023-08-21T04:52:18;9.37;;;5.80;;
10509;SDS011;5303;53.266;10.410;2023-08-21T04:54:44;6.57;;;5.17;;
10509;SDS011;5303;53.266;10.410;2023-08-21T04:57:09;10.27;;;5.80;;
10509;SDS011;5303;53.266;10.410;2023-08-21T04:59:35;9.10;;;5.73;;
10509;SDS011;5303;53.266;10.410;2023-08-21T05:02:01;10.00;;;6.07;;
10509;SDS011;5303;53.266;10.410;2023-08-21T05:04:26;8.03;;;5.60;;
10509;SDS011;5303;53.266;10.410;2023-08-21T05:06:51;7.93;;;6.30;;
10509;SDS011;5303;53.266;10.410;2023-08-21T05:09:17;12.43;;;6.10;;
10509;SDS011;5303;53.266;10.410;2023-08-21T05:11:42;11.27;;;6.40;;
10509;SDS011;5303;53.266;10.410;2023-08-21T05:14:07;11.33;;;5.97;;
10509;SDS011;5303;53.266;10.410;2023-08-21T05:16:32;12.20;;;6.17;;
10509;SDS011;5303;53.266;10.410;2023-08-21T05:18:58;12.33;;;6.10;;
10509;SDS011;5303;53.266;10.410;2023-08-21T05:21:23;8.10;;;5.03;;
10509;SDS011;5303;53.266;10.410;2023-08-21T05:23:49;13.53;;;6.20;;
10509;SDS011;5303;53.266;10.410;2023-08-21T05:26:14;10.77;;;5.13;;
10509;SDS011;5303;53.266;10.410;2023-08-21T05:28:39;11.40;;;5.30;;
10509;SDS011;5303;53.266;10.410;2023-08-21T05:31:04;9.27;;;5.07;;
10509;SDS011;5303;53.266;10.410;2023-08-21T05:33:30;8.53;;;4.77;;
10509;SDS011;5303;53.266;10.410;2023-08-21T05:35:56;11.90;;;4.93;;
10509;SDS011;5303;53.266;10.410;2023-08-21T05:38:21;10.77;;;4.53;;
10509;SDS011;5303;53.266;10.410;2023-08-21T05:40:47;8.57;;;4.27;;
10509;SDS011;5303;53.266;10.410;2023-08-21T05:43:13;9.33;;;4.00;;
10509;SDS011;5303;53.266;10.410;2023-08-21T05:45:38;12.03;;;4.30;;
10509;SDS011;5303;53.266;10.410;2023-08-21T05:48:03;6.77;;;3.63;;
10509;SDS011;5303;53.266;10.410;2023-08-21T05:50:29;8.10;;;3.53;;
10509;SDS011;5303;53.266;10.410;2023-08-21T05:52:54;9.33;;;3.93;;
10509;SDS011;5303;53.266;10.410;2023-08-21T05:55:20;7.37;;;3.60;;
10509;SDS011;5303;53.266;10.410;2023-08-21T05:57:45;10.53;;;3.50;;
10509;SDS011;5303;53.266;10.410;2023-08-21T06:00:12;7.70;;;3.40;;
10509;SDS011;5303;53.266;10.410;2023-08-21T06:02:37;7.73;;;3.50;;
10509;SDS011;5303;53.266;10.410;2023-08-21T06:05:03;6.13;;;3.17;;
10509;SDS011;5303;53.266;10.410;2023-08-21T06:07:28;11.00;;;3.67;;
10509;SDS011;5303;53.266;10.410;2023-08-21T06:09:53;7.37;;;3.33;;
10509;SDS011;5303;53.266;10.410;2023-08-21T06:12:19;6.23;;;3.30;;
10509;SDS011;5303;53.266;10.410;2023-08-21T06:14:44;7.80;;;2.97;;
10509;SDS011;5303;53.266;10.410;2023-08-21T06:17:09;7.83;;;3.37;;
10509;SDS011;5303;53.266;10.410;2023-08-21T06:19:35;6.53;;;2.97;;
10509;SDS011;5303;53.266;10.410;2023-08-21T06:22:01;9.13;;;3.20;;
10509;SDS011;5303;53.266;10.410;2023-08-21T06:24:26;6.33;;;3.43;;
10509;SDS011;5303;53.266;10.410;2023-08-21T06:26:51;6.83;;;3.17;;
10509;SDS011;5303;53.266;10.410;2023-08-21T06:29:17;7.10;;;3.20;;
10509;SDS011;5303;53.266;10.410;2023-08-21T06:31:45;7.43;;;3.27;;
10509;SDS011;5303;53.266;10.410;2023-08-21T06:34:11;12.67;;;3.93;;
10509;SDS011;5303;53.266;10.410;2023-08-21T06:36:36;9.13;;;2.87;;
10509;SDS011;5303;53.266;10.410;2023-08-21T06:39:01;8.03;;;2.90;;
10509;SDS011;5303;53.266;10.410;2023-08-21T06:41:27;10.83;;;3.20;;
10509;SDS011;5303;53.266;10.410;2023-08-21T06:43:52;8.50;;;3.10;;
10509;SDS011;5303;53.266;10.410;2023-08-21T06:46:18;7.53;;;3.50;;
10509;SDS011;5303;53.266;10.410;2023-08-21T06:48:43;8.67;;;2.97;;
10509;SDS011;5303;53.266;10.410;2023-08-21T06:51:09;5.20;;;2.70;;
10509;SDS011;5303;53.266;10.410;2023-08-21T06:53:34;7.00;;;2.70;;
10509;SDS011;5303;53.266;10.410;2023-08-21T06:56:00;7.53;;;3.00;;
10509;SDS011;5303;53.266;10.410;2023-08-21T06:58:25;9.50;;;3.40;;
10509;SDS011;5303;53.266;10.410;2023-08-21T07:00:52;10.03;;;3.37;;
10509;SDS011;5303;53.266;10.410;2023-08-21T07:03:18;9.03;;;3.83;;
10509;SDS011;5303;53.266;10.410;2023-08-21T07:05:46;8.07;;;2.90;;
10509;SDS011;5303;53.266;10.410;2023-08-21T07:08:13;4.07;;;2.83;;
10509;SDS011;5303;53.266;10.410;2023-08-21T07:10:38;7.00;;;2.97;;
10509;SDS011;5303;53.266;10.410;2023-08-21T07:13:03;10.90;;;3.47;;
10509;SDS011;5303;53.266;10.410;2023-08-21T07:15:29;8.47;;;3.03;;
10509;SDS011;5303;53.266;10.410;2023-08-21T07:17:55;6.43;;;2.80;;
10509;SDS011;5303;53.266;10.410;2023-08-21T07:20:20;6.57;;;3.07;;
10509;SDS011;5303;53.266;10.410;2023-08-21T07:22:46;9.53;;;3.00;;
10509;SDS011;5303;53.266;10.410;2023-08-21T07:25:11;6.63;;;3.13;;
10509;SDS011;5303;53.266;10.410;2023-08-21T07:27:37;6.87;;;3.00;;
10509;SDS011;5303;53.266;10.410;2023-08-21T07:30:02;7.60;;;2.97;;
10509;SDS011;5303;53.266;10.410;2023-08-21T07:32:28;8.43;;;2.90;;
10509;SDS011;5303;53.266;10.410;2023-08-21T07:34:53;10.17;;;3.43;;
10509;SDS011;5303;53.266;10.410;2023-08-21T07:37:19;8.30;;;3.03;;
10509;SDS011;5303;53.266;10.410;2023-08-21T07:39:45;10.07;;;3.13;;
10509;SDS011;5303;53.266;10.410;2023-08-21T07:45:32;9.33;;;3.13;;
10509;SDS011;5303;53.266;10.410;2023-08-21T07:47:57;6.93;;;3.37;;
10509;SDS011;5303;53.266;10.410;2023-08-21T07:50:22;10.00;;;3.60;;
10509;SDS011;5303;53.266;10.410;2023-08-21T07:52:48;11.07;;;3.33;;
10509;SDS011;5303;53.266;10.410;2023-08-21T07:55:13;11.33;;;3.30;;
10509;SDS011;5303;53.266;10.410;2023-08-21T07:57:38;9.87;;;3.13;;
10509;SDS011;5303;53.266;10.410;2023-08-21T08:00:04;8.17;;;3.70;;
10509;SDS011;5303;53.266;10.410;2023-08-21T08:02:34;5.50;;;2.80;;
10509;SDS011;5303;53.266;10.410;2023-08-21T08:05:00;5.37;;;3.17;;
10509;SDS011;5303;53.266;10.410;2023-08-21T08:07:25;6.63;;;2.90;;
10509;SDS011;5303;53.266;10.410;2023-08-21T08:09:50;6.93;;;3.10;;
10509;SDS011;5303;53.266;10.410;2023-08-21T08:12:16;6.83;;;3.00;;
10509;SDS011;5303;53.266;10.410;2023-08-21T08:14:41;9.40;;;3.03;;
10509;SDS011;5303;53.266;10.410;2023-08-21T08:17:06;7.20;;;3.20;;
10509;SDS011;5303;53.266;10.410;2023-08-21T08:19:32;7.43;;;3.33;;
10509;SDS011;5303;53.266;10.410;2023-08-21T08:21:57;7.95;;;2.95;;
10509;SDS011;5303;53.266;10.410;2023-08-21T08:24:22;6.63;;;2.87;;
10509;SDS011;5303;53.266;10.410;2023-08-21T08:26:47;7.33;;;3.30;;
10509;SDS011;5303;53.266;10.410;2023-08-21T08:29:13;9.27;;;3.00;;
10509;SDS011;5303;53.266;10.410;2023-08-21T08:31:39;8.50;;;2.93;;
10509;SDS011;5303;53.266;10.410;2023-08-21T08:34:04;5.93;;;2.60;;
10509;SDS011;5303;53.266;10.410;2023-08-21T08:36:29;6.72;;;2.72;;
10509;SDS011;5303;53.266;10.410;2023-08-21T08:38:55;12.17;;;3.10;;
10509;SDS011;5303;53.266;10.410;2023-08-21T08:41:41;8.33;;;2.73;;
10509;SDS011;5303;53.266;10.410;2023-08-21T08:44:13;10.23;;;2.97;;
10509;SDS011;5303;53.266;10.410;2023-08-21T08:46:40;6.05;;;2.63;;
10509;SDS011;5303;53.266;10.410;2023-08-21T08:49:06;8.60;;;2.55;;
10509;SDS011;5303;53.266;10.410;2023-08-21T08:51:32;4.37;;;2.40;;
10509;SDS011;5303;53.266;10.410;2023-08-21T08:54:02;6.32;;;2.38;;
10509;SDS011;5303;53.266;10.410;2023-08-21T08:56:28;10.10;;;2.80;;
10509;SDS011;5303;53.266;10.410;2023-08-21T08:58:54;4.68;;;2.28;;
10509;SDS011;5303;53.266;10.410;2023-08-21T09:01:19;7.63;;;2.40;;
10509;SDS011;5303;53.266;10.410;2023-08-21T09:03:44;6.75;;;2.05;;
10509;SDS011;5303;53.266;10.410;2023-08-21T09:06:10;5.22;;;2.40;;
10509;SDS011;5303;53.266;10.410;2023-08-21T09:08:35;7.57;;;2.25;;
10509;SDS011;5303;53.266;10.410;2023-08-21T09:11:01;5.13;;;2.15;;
10509;SDS011;5303;53.266;10.410;2023-08-21T09:13:28;5.35;;;2.35;;
10509;SDS011;5303;53.266;10.410;2023-08-21T09:15:55;8.73;;;2.38;;
10509;SDS011;5303;53.266;10.410;2023-08-21T09:18:21;9.18;;;2.60;;
10509;SDS011;5303;53.266;10.410;2023-08-21T09:20:46;6.03;;;2.25;;
10509;SDS011;5303;53.266;10.410;2023-08-21T09:23:13;8.77;;;2.60;;
10509;SDS011;5303;53.266;10.410;2023-08-21T09:25:40;6.82;;;2.63;;
10509;SDS011;5303;53.266;10.410;2023-08-21T09:28:06;5.22;;;2.45;;
10509;SDS011;5303;53.266;10.410;2023-08-21T09:33:11;8.47;;;2.57;;
10509;SDS011;5303;53.266;10.410;2023-08-21T09:35:36;6.47;;;2.40;;
10509;SDS011;5303;53.266;10.410;2023-08-21T09:38:01;8.80;;;2.47;;
10509;SDS011;5303;53.266;10.410;2023-08-21T09:40:27;5.38;;;2.17;;
10509;SDS011;5303;53.266;10.410;2023-08-21T09:42:53;7.10;;;2.47;;
10509;SDS011;5303;53.266;10.410;2023-08-21T09:45:22;7.45;;;2.60;;
10509;SDS011;5303;53.266;10.410;2023-08-21T09:47:52;5.68;;;2.15;;
10509;SDS011;5303;53.266;10.410;2023-08-21T09:50:18;4.60;;;2.50;;
10509;SDS011;5303;53.266;10.410;2023-08-21T09:52:44;5.80;;;2.28;;
10509;SDS011;5303;53.266;10.410;2023-08-21T09:55:09;5.65;;;2.13;;
10509;SDS011;5303;53.266;10.410;2023-08-21T09:57:35;7.60;;;2.33;;
10509;SDS011;5303;53.266;10.410;2023-08-21T10:00:02;5.13;;;2.00;;
10509;SDS011;5303;53.266;10.410;2023-08-21T10:02:40;7.57;;;2.10;;
10509;SDS011;5303;53.266;10.410;2023-08-21T10:05:13;3.88;;;2.00;;
10509;SDS011;5303;53.266;10.410;2023-08-21T10:07:39;4.88;;;1.90;;
10509;SDS011;5303;53.266;10.410;2023-08-21T10:10:06;3.30;;;1.77;;
10509;SDS011;5303;53.266;10.410;2023-08-21T10:12:33;5.28;;;1.98;;
10509;SDS011;5303;53.266;10.410;2023-08-21T10:14:58;4.50;;;1.80;;
10509;SDS011;5303;53.266;10.410;2023-08-21T10:17:23;4.47;;;1.80;;
10509;SDS011;5303;53.266;10.410;2023-08-21T10:19:52;5.75;;;2.72;;
10509;SDS011;5303;53.266;10.410;2023-08-21T10:25:03;3.53;;;1.60;;
10509;SDS011;5303;53.266;10.410;2023-08-21T10:27:38;3.78;;;1.77;;
10509;SDS011;5303;53.266;10.410;2023-08-21T10:30:14;2.92;;;1.60;;
10509;SDS011;5303;53.266;10.410;2023-08-21T10:32:44;3.83;;;1.83;;
10509;SDS011;5303;53.266;10.410;2023-08-21T10:35:14;3.38;;;1.77;;
10509;SDS011;5303;53.266;10.410;2023-08-21T10:40:31;2.95;;;1.80;;
10509;SDS011;5303;53.266;10.410;2023-08-21T10:42:57;5.15;;;1.80;;
10509;SDS011;5303;53.266;10.410;2023-08-21T10:45:23;4.70;;;1.50;;
10509;SDS011;5303;53.266;10.410;2023-08-21T10:47:49;3.13;;;1.70;;
10509;SDS011;5303;53.266;10.410;2023-08-21T10:50:15;5.65;;;1.63;;
10509;SDS011;5303;53.266;10.410;2023-08-21T10:52:42;2.60;;;1.50;;
10509;SDS011;5303;53.266;10.410;2023-08-21T10:55:10;6.00;;;1.77;;
10509;SDS011;5303;53.266;10.410;2023-08-21T10:57:37;4.18;;;1.95;;
10509;SDS011;5303;53.266;10.410;2023-08-21T11:00:06;2.90;;;1.88;;
10509;SDS011;5303;53.266;10.410;2023-08-21T11:02:46;3.78;;;1.75;;
10509;SDS011;5303;53.266;10.410;2023-08-21T11:05:15;4.45;;;1.80;;
10509;SDS011;5303;53.266;10.410;2023-08-21T11:10:11;4.35;;;1.70;;
10509;SDS011;5303;53.266;10.410;2023-08-21T11:12:51;3.80;;;1.80;;
10509;SDS011;5303;53.266;10.410;2023-08-21T11:15:17;3.25;;;1.50;;
10509;SDS011;5303;53.266;10.410;2023-08-21T11:17:50;5.78;;;1.70;;
10509;SDS011;5303;53.266;10.410;2023-08-21T11:20:29;2.28;;;1.52;;
10509;SDS011;5303;53.266;10.410;2023-08-21T11:22:58;4.60;;;1.85;;
10509;SDS011;5303;53.266;10.410;2023-08-21T11:25:33;3.10;;;1.60;;
10509;SDS011;5303;53.266;10.410;2023-08-21T11:28:05;3.53;;;1.50;;
10509;SDS011;5303;53.266;10.410;2023-08-21T11:30:30;3.45;;;1.50;;
10509;SDS011;5303;53.266;10.410;2023-08-21T11:33:09;5.80;;;1.90;;
10509;SDS011;5303;53.266;10.410;2023-08-21T11:35:38;5.88;;;2.00;;
10509;SDS011;5303;53.266;10.410;2023-08-21T11:38:04;3.15;;;1.73;;
10509;SDS011;5303;53.266;10.410;2023-08-21T11:40:30;4.47;;;1.70;;
10509;SDS011;5303;53.266;10.410;2023-08-21T11:43:02;5.38;;;1.88;;
10509;SDS011;5303;53.266;10.410;2023-08-21T11:45:30;2.58;;;1.63;;
10509;SDS011;5303;53.266;10.410;2023-08-21T11:47:55;4.03;;;2.05;;
10509;SDS011;5303;53.266;10.410;2023-08-21T11:50:21;3.80;;;1.50;;
10509;SDS011;5303;53.266;10.410;2023-08-21T11:52:47;4.13;;;1.77;;
10509;SDS011;5303;53.266;10.410;2023-08-21T11:55:15;3.33;;;1.75;;
10509;SDS011;5303;53.266;10.410;2023-08-21T11:57:48;3.05;;;1.70;;
10509;SDS011;5303;53.266;10.410;2023-08-21T12:00:14;2.00;;;1.55;;
10509;SDS011;5303;53.266;10.410;2023-08-21T12:02:48;2.60;;;1.70;;
10509;SDS011;5303;53.266;10.410;2023-08-21T12:05:28;3.58;;;1.92;;
10509;SDS011;5303;53.266;10.410;2023-08-21T12:07:54;2.35;;;1.35;;
10509;SDS011;5303;53.266;10.410;2023-08-21T12:10:24;4.25;;;1.73;;
10509;SDS011;5303;53.266;10.410;2023-08-21T12:12:49;5.35;;;1.70;;
10509;SDS011;5303;53.266;10.410;2023-08-21T12:15:14;4.43;;;1.83;;
10509;SDS011;5303;53.266;10.410;2023-08-21T12:17:40;3.38;;;1.70;;
10509;SDS011;5303;53.266;10.410;2023-08-21T12:20:05;3.42;;;1.50;;
10509;SDS011;5303;53.266;10.410;2023-08-21T12:22:35;4.35;;;1.52;;
10509;SDS011;5303;53.266;10.410;2023-08-21T12:25:01;3.00;;;1.70;;
10509;SDS011;5303;53.266;10.410;2023-08-21T12:27:26;4.40;;;2.00;;
10509;SDS011;5303;53.266;10.410;2023-08-21T12:29:51;5.32;;;1.75;;
10509;SDS011;5303;53.266;10.410;2023-08-21T12:32:16;6.82;;;1.98;;
10509;SDS011;5303;53.266;10.410;2023-08-21T12:34:42;4.38;;;1.70;;
10509;SDS011;5303;53.266;10.410;2023-08-21T12:37:07;3.22;;;1.73;;
10509;SDS011;5303;53.266;10.410;2023-08-21T12:39:32;5.30;;;1.50;;
10509;SDS011;5303;53.266;10.410;2023-08-21T12:41:58;2.85;;;1.50;;
10509;SDS011;5303;53.266;10.410;2023-08-21T12:44:23;2.83;;;1.65;;
10509;SDS011;5303;53.266;10.410;2023-08-21T12:46:48;2.97;;;1.50;;
10509;SDS011;5303;53.266;10.410;2023-08-21T12:49:15;3.60;;;1.60;;
10509;SDS011;5303;53.266;10.410;2023-08-21T12:51:40;3.63;;;1.73;;
10509;SDS011;5303;53.266;10.410;2023-08-21T12:54:06;3.20;;;1.77;;
10509;SDS011;5303;53.266;10.410;2023-08-21T12:56:31;4.32;;;1.83;;
10509;SDS011;5303;53.266;10.410;2023-08-21T12:58:56;2.75;;;1.40;;
10509;SDS011;5303;53.266;10.410;2023-08-21T13:01:21;2.70;;;1.48;;
10509;SDS011;5303;53.266;10.410;2023-08-21T13:03:47;3.03;;;1.50;;
10509;SDS011;5303;53.266;10.410;2023-08-21T13:06:15;2.65;;;1.52;;
10509;SDS011;5303;53.266;10.410;2023-08-21T13:08:40;3.22;;;1.70;;
10509;SDS011;5303;53.266;10.410;2023-08-21T13:11:06;3.80;;;1.75;;
10509;SDS011;5303;53.266;10.410;2023-08-21T13:13:32;3.60;;;2.03;;
10509;SDS011;5303;53.266;10.410;2023-08-21T13:15:58;3.72;;;1.70;;
10509;SDS011;5303;53.266;10.410;2023-08-21T13:18:25;3.33;;;1.45;;
10509;SDS011;5303;53.266;10.410;2023-08-21T13:20:50;2.47;;;1.85;;
10509;SDS011;5303;53.266;10.410;2023-08-21T13:23:15;2.88;;;1.70;;
10509;SDS011;5303;53.266;10.410;2023-08-21T13:25:41;3.17;;;1.55;;
10509;SDS011;5303;53.266;10.410;2023-08-21T13:28:06;4.00;;;1.90;;
10509;SDS011;5303;53.266;10.410;2023-08-21T13:30:31;3.35;;;1.70;;
10509;SDS011;5303;53.266;10.410;2023-08-21T13:32:57;3.15;;;1.80;;
10509;SDS011;5303;53.266;10.410;2023-08-21T13:35:22;4.63;;;2.22;;
10509;SDS011;5303;53.266;10.410;2023-08-21T13:37:48;3.25;;;2.05;;
10509;SDS011;5303;53.266;10.410;2023-08-21T13:40:13;2.42;;;1.48;;
10509;SDS011;5303;53.266;10.410;2023-08-21T13:42:42;3.95;;;2.08;;
10509;SDS011;5303;53.266;10.410;2023-08-21T13:45:14;2.97;;;1.80;;
10509;SDS011;5303;53.266;10.410;2023-08-21T13:47:41;3.38;;;1.88;;
10509;SDS011;5303;53.266;10.410;2023-08-21T13:50:08;5.43;;;1.90;;
10509;SDS011;5303;53.266;10.410;2023-08-21T13:52:34;20.67;;;14.88;;
10509;SDS011;5303;53.266;10.410;2023-08-21T13:55:00;4.55;;;2.65;;
10509;SDS011;5303;53.266;10.410;2023-08-21T13:57:27;4.35;;;2.38;;
10509;SDS011;5303;53.266;10.410;2023-08-21T13:59:52;3.65;;;1.80;;
10509;SDS011;5303;53.266;10.410;2023-08-21T14:02:18;4.15;;;1.83;;
10509;SDS011;5303;53.266;10.410;2023-08-21T14:04:43;3.05;;;1.90;;
10509;SDS011;5303;53.266;10.410;2023-08-21T14:07:10;5.35;;;1.92;;
10509;SDS011;5303;53.266;10.410;2023-08-21T14:09:36;4.80;;;1.98;;
10509;SDS011;5303;53.266;10.410;2023-08-21T14:15:23;2.30;;;1.83;;
10509;SDS011;5303;53.266;10.410;2023-08-21T14:17:49;4.28;;;2.00;;
10509;SDS011;5303;53.266;10.410;2023-08-21T14:20:14;3.30;;;2.10;;
10509;SDS011;5303;53.266;10.410;2023-08-21T14:22:40;2.80;;;2.08;;
10509;SDS011;5303;53.266;10.410;2023-08-21T14:25:05;5.25;;;1.90;;
10509;SDS011;5303;53.266;10.410;2023-08-21T14:27:31;3.05;;;1.80;;
10509;SDS011;5303;53.266;10.410;2023-08-21T14:29:56;8.52;;;6.45;;
10509;SDS011;5303;53.266;10.410;2023-08-21T14:32:22;1.88;;;1.50;;
10509;SDS011;5303;53.266;10.410;2023-08-21T14:34:47;5.93;;;2.53;;
10509;SDS011;5303;53.266;10.410;2023-08-21T14:37:13;6.80;;;2.20;;
10509;SDS011;5303;53.266;10.410;2023-08-21T14:39:40;2.47;;;1.63;;
10509;SDS011;5303;53.266;10.410;2023-08-21T14:42:06;3.33;;;1.98;;
10509;SDS011;5303;53.266;10.410;2023-08-21T14:44:32;4.68;;;1.85;;
10509;SDS011;5303;53.266;10.410;2023-08-21T14:46:57;5.72;;;2.08;;
10509;SDS011;5303;53.266;10.410;2023-08-21T14:49:23;3.15;;;1.98;;
10509;SDS011;5303;53.266;10.410;2023-08-21T14:51:48;2.80;;;1.60;;
10509;SDS011;5303;53.266;10.410;2023-08-21T14:54:14;3.83;;;2.05;;
10509;SDS011;5303;53.266;10.410;2023-08-21T14:56:39;3.03;;;2.03;;
10509;SDS011;5303;53.266;10.410;2023-08-21T14:59:05;3.58;;;1.98;;
10509;SDS011;5303;53.266;10.410;2023-08-21T15:01:30;3.17;;;1.70;;